sensor_id;sensor_type;location;lat;lon;timestamp;pressure;altitude;pressure_sealevel;temperature;humidity
76122;BME280;70471;53.200;6.080;2024-03-29T00:00:38;98967.81;;;20.25;32.89
76122;BME280;70471;53.200;6.080;2024-03-29T00:05:32;98964.63;;;20.23;33.37
76122;BME280;70471;53.200;6.080;2024-03-29T00:10:23;98964.03;;;20.17;33.26
76122;BME280;70471;53.200;6.080;2024-03-29T00:15:14;98964.50;;;20.19;32.75
76122;BME280;70471;53.200;6.080;2024-03-29T00:20:06;98973.50;;;20.16;32.90
76122;BME280;70471;53.200;6.080;2024-03-29T00:24:58;98964.28;;;20.12;32.80
76122;BME280;70471;53.200;6.080;2024-03-29T00:29:48;98976.47;;;20.11;33.36
76122;BME280;70471;53.200;6.080;2024-03-29T00:34:39;98976.81;;;20.10;32.80
76122;BME280;70471;53.200;6.080;2024-03-29T00:39:30;98968.88;;;20.08;32.89
76122;BME280;70471;53.200;6.080;2024-03-29T00:44:22;98982.59;;;20.05;33.36
76122;BME280;70471;53.200;6.080;2024-03-29T00:49:12;98985.69;;;20.03;33.36
76122;BME280;70471;53.200;6.080;2024-03-29T00:54:03;98991.94;;;20.00;33.03
76122;BME280;70471;53.200;6.080;2024-03-29T00:58:53;99004.50;;;19.97;32.83
76122;BME280;70471;53.200;6.080;2024-03-29T01:03:45;98998.38;;;19.92;32.86
76122;BME280;70471;53.200;6.080;2024-03-29T01:08:36;99000.00;;;19.93;32.84
76122;BME280;70471;53.200;6.080;2024-03-29T01:13:26;98992.84;;;19.92;32.81
76122;BME280;70471;53.200;6.080;2024-03-29T01:18:17;98990.09;;;19.92;33.13
76122;BME280;70471;53.200;6.080;2024-03-29T01:23:09;99000.69;;;19.90;32.83
76122;BME280;70471;53.200;6.080;2024-03-29T01:28:00;98993.88;;;19.87;32.99
76122;BME280;70471;53.200;6.080;2024-03-29T01:32:50;98994.56;;;19.84;33.27
76122;BME280;70471;53.200;6.080;2024-03-29T01:37:41;98997.69;;;19.82;33.37
76122;BME280;70471;53.200;6.080;2024-03-29T01:42:33;99000.91;;;19.84;33.20
76122;BME280;70471;53.200;6.080;2024-03-29T01:47:23;98994.91;;;19.82;32.77
76122;BME280;70471;53.200;6.080;2024-03-29T01:52:16;98986.53;;;19.79;32.70
76122;BME280;70471;53.200;6.080;2024-03-29T01:57:09;98996.78;;;19.78;33.27
76122;BME280;70471;53.200;6.080;2024-03-29T02:02:02;98977.09;;;19.80;33.21
76122;BME280;70471;53.200;6.080;2024-03-29T02:06:54;98976.25;;;19.79;32.69
76122;BME280;70471;53.200;6.080;2024-03-29T02:11:46;98976.94;;;19.76;32.55
76122;BME280;70471;53.200;6.080;2024-03-29T02:16:37;98976.94;;;19.76;32.69
76122;BME280;70471;53.200;6.080;2024-03-29T02:21:31;98964.31;;;19.75;33.18
76122;BME280;70471;53.200;6.080;2024-03-29T02:26:26;98968.22;;;19.74;32.70
76122;BME280;70471;53.200;6.080;2024-03-29T02:31:21;98968.22;;;19.74;33.15
76122;BME280;70471;53.200;6.080;2024-03-29T02:36:13;98964.31;;;19.75;32.64
76122;BME280;70471;53.200;6.080;2024-03-29T02:41:04;98979.94;;;19.71;33.09
76122;BME280;70471;53.200;6.080;2024-03-29T02:45:57;98969.69;;;19.72;32.53
76122;BME280;70471;53.200;6.080;2024-03-29T02:50:49;98969.34;;;19.73;33.05
76122;BME280;70471;53.200;6.080;2024-03-29T02:55:41;98967.28;;;19.70;33.11
76122;BME280;70471;53.200;6.080;2024-03-29T03:00:33;98961.75;;;19.70;32.54
76122;BME280;70471;53.200;6.080;2024-03-29T03:05:26;98968.91;;;19.71;32.57
76122;BME280;70471;53.200;6.080;2024-03-29T03:10:18;98974.06;;;19.73;33.01
76122;BME280;70471;53.200;6.080;2024-03-29T03:15:28;98980.75;;;19.72;32.49
76122;BME280;70471;53.200;6.080;2024-03-29T03:20:20;98989.38;;;19.70;32.53
76122;BME280;70471;53.200;6.080;2024-03-29T03:25:14;98997.47;;;19.75;32.37
76122;BME280;70471;53.200;6.080;2024-03-29T03:30:07;99002.06;;;19.71;32.76
76122;BME280;70471;53.200;6.080;2024-03-29T03:35:00;98989.38;;;19.70;32.89
76122;BME280;70471;53.200;6.080;2024-03-29T03:39:52;98985.47;;;19.71;32.39
76122;BME280;70471;53.200;6.080;2024-03-29T03:44:44;99000.22;;;19.75;32.44
76122;BME280;70471;53.200;6.080;2024-03-29T03:49:36;99009.19;;;19.72;32.38
76122;BME280;70471;53.200;6.080;2024-03-29T03:54:27;99008.03;;;19.73;32.62
76122;BME280;70471;53.200;6.080;2024-03-29T03:59:19;99006.88;;;19.74;32.26
76122;BME280;70471;53.200;6.080;2024-03-29T04:04:12;99014.72;;;19.72;32.64
76122;BME280;70471;53.200;6.080;2024-03-29T04:09:04;99023.00;;;19.72;32.46
76122;BME280;70471;53.200;6.080;2024-03-29T04:13:56;99015.53;;;19.73;32.34
76122;BME280;70471;53.200;6.080;2024-03-29T04:18:47;98999.28;;;19.71;32.48
76122;BME280;70471;53.200;6.080;2024-03-29T04:23:40;99011.13;;;19.72;32.68
76122;BME280;70471;53.200;6.080;2024-03-29T04:28:32;99021.84;;;19.73;32.50
76122;BME280;70471;53.200;6.080;2024-03-29T04:33:24;99011.47;;;19.70;32.56
76122;BME280;70471;53.200;6.080;2024-03-29T04:38:15;99015.41;;;19.69;32.45
76122;BME280;70471;53.200;6.080;2024-03-29T04:43:09;99017.50;;;19.72;32.09
76122;BME280;70471;53.200;6.080;2024-03-29T04:48:01;99019.31;;;19.68;32.47
76122;BME280;70471;53.200;6.080;2024-03-29T04:52:53;99017.00;;;19.70;32.02
76122;BME280;70471;53.200;6.080;2024-03-29T04:57:45;99011.97;;;19.72;32.01
76122;BME280;70471;53.200;6.080;2024-03-29T05:02:38;99013.91;;;19.72;31.95
76122;BME280;70471;53.200;6.080;2024-03-29T05:07:29;99017.50;;;19.72;32.43
76122;BME280;70471;53.200;6.080;2024-03-29T05:12:21;99013.56;;;19.73;31.99
76122;BME280;70471;53.200;6.080;2024-03-29T05:17:12;99015.53;;;19.73;31.92
76122;BME280;70471;53.200;6.080;2024-03-29T05:22:05;99027.84;;;19.75;32.29
76122;BME280;70471;53.200;6.080;2024-03-29T05:26:57;99030.63;;;19.75;32.53
76122;BME280;70471;53.200;6.080;2024-03-29T05:31:48;99023.47;;;19.74;32.39
76122;BME280;70471;53.200;6.080;2024-03-29T05:36:40;99025.09;;;19.75;31.82
76122;BME280;70471;53.200;6.080;2024-03-29T05:41:32;99038.91;;;19.75;31.91
76122;BME280;70471;53.200;6.080;2024-03-29T05:46:24;99041.19;;;19.73;31.77
76122;BME280;70471;53.200;6.080;2024-03-29T05:51:16;99040.06;;;19.74;31.96
76122;BME280;70471;53.200;6.080;2024-03-29T05:56:08;99043.28;;;19.76;32.15
76122;BME280;70471;53.200;6.080;2024-03-29T06:01:03;99054.31;;;19.76;32.34
76122;BME280;70471;53.200;6.080;2024-03-29T06:05:55;99040.72;;;19.71;31.85
76122;BME280;70471;53.200;6.080;2024-03-29T06:10:47;99052.38;;;19.77;31.77
76122;BME280;70471;53.200;6.080;2024-03-29T06:15:39;99066.06;;;19.73;32.36
76122;BME280;70471;53.200;6.080;2024-03-29T06:20:51;99082.63;;;19.73;32.01
76122;BME280;70471;53.200;6.080;2024-03-29T06:25:44;99073.09;;;19.71;31.97
76122;BME280;70471;53.200;6.080;2024-03-29T06:30:37;99081.03;;;19.72;32.14
76122;BME280;70471;53.200;6.080;2024-03-29T06:35:29;99087.03;;;19.74;32.08
76122;BME280;70471;53.200;6.080;2024-03-29T06:40:22;99086.44;;;19.69;32.13
76122;BME280;70471;53.200;6.080;2024-03-29T06:45:14;99092.22;;;19.76;32.29
76122;BME280;70471;53.200;6.080;2024-03-29T06:50:06;99105.09;;;19.72;31.84
76122;BME280;70471;53.200;6.080;2024-03-29T06:54:58;99104.75;;;19.73;31.89
76122;BME280;70471;53.200;6.080;2024-03-29T06:59:51;99119.06;;;19.75;31.94
76122;BME280;70471;53.200;6.080;2024-03-29T07:04:42;99124.91;;;19.74;31.79
76122;BME280;70471;53.200;6.080;2024-03-29T07:09:34;99116.47;;;19.70;32.40
76122;BME280;70471;53.200;6.080;2024-03-29T07:14:26;99130.28;;;19.70;32.12
76122;BME280;70471;53.200;6.080;2024-03-29T07:19:20;99139.06;;;19.72;32.28
76122;BME280;70471;53.200;6.080;2024-03-29T07:24:12;99144.94;;;19.71;31.89
76122;BME280;70471;53.200;6.080;2024-03-29T07:29:04;99138.94;;;19.69;31.79
76122;BME280;70471;53.200;6.080;2024-03-29T07:33:56;99140.56;;;19.70;31.90
76122;BME280;70471;53.200;6.080;2024-03-29T07:38:49;99146.19;;;19.73;32.08
76122;BME280;70471;53.200;6.080;2024-03-29T07:43:51;99152.94;;;19.97;31.87
76122;BME280;70471;53.200;6.080;2024-03-29T07:48:43;99143.06;;;20.08;31.82
76122;BME280;70471;53.200;6.080;2024-03-29T07:53:34;99161.28;;;20.09;32.17
76122;BME280;70471;53.200;6.080;2024-03-29T07:58:27;99165.31;;;20.12;32.04
76122;BME280;70471;53.200;6.080;2024-03-29T08:03:19;99170.84;;;20.24;32.81
76122;BME280;70471;53.200;6.080;2024-03-29T08:08:11;99174.59;;;20.41;32.45
76122;BME280;70471;53.200;6.080;2024-03-29T08:13:03;99196.41;;;20.54;32.35
76122;BME280;70471;53.200;6.080;2024-03-29T08:17:57;99198.25;;;20.63;33.03
76122;BME280;70471;53.200;6.080;2024-03-29T08:22:49;99193.06;;;20.73;32.67
76122;BME280;70471;53.200;6.080;2024-03-29T08:27:40;99193.53;;;20.76;32.36
76122;BME280;70471;53.200;6.080;2024-03-29T08:32:31;99191.22;;;20.78;32.45
76122;BME280;70471;53.200;6.080;2024-03-29T08:37:24;99180.94;;;20.78;32.52
76122;BME280;70471;53.200;6.080;2024-03-29T08:42:16;99201.47;;;20.77;32.60
76122;BME280;70471;53.200;6.080;2024-03-29T08:47:07;99206.66;;;20.79;32.18
76122;BME280;70471;53.200;6.080;2024-03-29T08:52:00;99209.34;;;20.75;32.70
76122;BME280;70471;53.200;6.080;2024-03-29T08:56:56;99206.56;;;20.75;32.68
76122;BME280;70471;53.200;6.080;2024-03-29T09:01:48;99192.00;;;20.78;32.65
76122;BME280;70471;53.200;6.080;2024-03-29T09:06:40;99191.31;;;20.81;32.70
76122;BME280;70471;53.200;6.080;2024-03-29T09:11:32;99196.16;;;20.84;32.40
76122;BME280;70471;53.200;6.080;2024-03-29T09:16:26;99218.19;;;20.81;33.05
76122;BME280;70471;53.200;6.080;2024-03-29T09:21:18;99231.47;;;20.75;33.10
76122;BME280;70471;53.200;6.080;2024-03-29T09:26:10;99230.53;;;20.71;32.73
76122;BME280;70471;53.200;6.080;2024-03-29T09:31:03;99219.91;;;20.61;33.11
76122;BME280;70471;53.200;6.080;2024-03-29T09:35:58;99230.63;;;20.62;33.37
76122;BME280;70471;53.200;6.080;2024-03-29T09:40:56;99238.47;;;20.60;33.34
76122;BME280;70471;53.200;6.080;2024-03-29T09:45:53;99237.19;;;20.58;33.40
76122;BME280;70471;53.200;6.080;2024-03-29T09:50:45;99237.09;;;20.54;33.42
76122;BME280;70471;53.200;6.080;2024-03-29T09:55:38;99255.66;;;20.53;33.53
76122;BME280;70471;53.200;6.080;2024-03-29T10:00:30;99259.91;;;20.51;33.22
76122;BME280;70471;53.200;6.080;2024-03-29T10:05:22;99244.13;;;20.51;33.65
76122;BME280;70471;53.200;6.080;2024-03-29T10:10:15;99244.13;;;20.51;33.31
76122;BME280;70471;53.200;6.080;2024-03-29T10:15:09;99260.50;;;20.57;33.47
76122;BME280;70471;53.200;6.080;2024-03-29T10:20:05;99271.56;;;20.57;33.69
76122;BME280;70471;53.200;6.080;2024-03-29T10:24:57;99265.78;;;20.49;33.50
76122;BME280;70471;53.200;6.080;2024-03-29T10:29:52;99262.47;;;20.56;33.45
76122;BME280;70471;53.200;6.080;2024-03-29T10:34:48;99251.75;;;20.54;33.71
76122;BME280;70471;53.200;6.080;2024-03-29T10:39:43;99238.72;;;20.55;33.91
76122;BME280;70471;53.200;6.080;2024-03-29T10:44:35;99256.56;;;20.58;33.47
76122;BME280;70471;53.200;6.080;2024-03-29T10:49:29;99245.16;;;20.59;33.62
76122;BME280;70471;53.200;6.080;2024-03-29T10:54:25;99250.34;;;20.61;34.08
76122;BME280;70471;53.200;6.080;2024-03-29T10:59:21;99265.81;;;20.62;34.12
76122;BME280;70471;53.200;6.080;2024-03-29T11:04:17;99262.25;;;20.61;34.21
76122;BME280;70471;53.200;6.080;2024-03-29T11:09:13;99244.81;;;20.48;34.01
76122;BME280;70471;53.200;6.080;2024-03-29T11:14:09;99263.28;;;20.57;34.72
76122;BME280;70471;53.200;6.080;2024-03-29T11:19:02;99272.03;;;20.59;34.48
76122;BME280;70471;53.200;6.080;2024-03-29T11:23:56;99271.34;;;20.62;34.81
76122;BME280;70471;53.200;6.080;2024-03-29T11:28:52;99270.19;;;20.63;34.57
76122;BME280;70471;53.200;6.080;2024-03-29T11:33:48;99289.69;;;20.66;34.83
76122;BME280;70471;53.200;6.080;2024-03-29T11:38:42;99290.47;;;20.67;34.36
76122;BME280;70471;53.200;6.080;2024-03-29T11:43:35;99299.69;;;20.59;34.96
76122;BME280;70471;53.200;6.080;2024-03-29T11:48:28;99287.00;;;20.45;34.38
76122;BME280;70471;53.200;6.080;2024-03-29T11:53:22;99311.22;;;20.48;34.62
76122;BME280;70471;53.200;6.080;2024-03-29T11:58:14;99290.56;;;20.46;34.32
76122;BME280;70471;53.200;6.080;2024-03-29T12:03:05;99300.34;;;20.43;34.68
76122;BME280;70471;53.200;6.080;2024-03-29T12:07:58;99294.34;;;20.41;34.86
76122;BME280;70471;53.200;6.080;2024-03-29T12:12:51;99302.53;;;20.37;34.79
76122;BME280;70471;53.200;6.080;2024-03-29T12:17:53;99307.94;;;20.34;34.91
76122;BME280;70471;53.200;6.080;2024-03-29T12:22:44;99315.25;;;20.30;34.67
76122;BME280;70471;53.200;6.080;2024-03-29T12:27:36;99331.41;;;20.28;34.98
76122;BME280;70471;53.200;6.080;2024-03-29T12:32:29;99336.44;;;20.26;34.73
76122;BME280;70471;53.200;6.080;2024-03-29T12:37:23;99342.66;;;20.23;34.96
76122;BME280;70471;53.200;6.080;2024-03-29T12:42:18;99339.44;;;20.20;34.89
76122;BME280;70471;53.200;6.080;2024-03-29T12:47:10;99336.66;;;20.20;34.91
76122;BME280;70471;53.200;6.080;2024-03-29T12:52:05;99352.44;;;20.20;34.99
76122;BME280;70471;53.200;6.080;2024-03-29T12:56:56;99341.28;;;20.16;35.10
76122;BME280;70471;53.200;6.080;2024-03-29T13:01:49;99340.94;;;20.18;34.75
76122;BME280;70471;53.200;6.080;2024-03-29T13:06:40;99335.41;;;20.18;35.00
76122;BME280;70471;53.200;6.080;2024-03-29T13:11:33;99343.81;;;20.22;35.41
76122;BME280;70471;53.200;6.080;2024-03-29T13:16:24;99348.19;;;20.23;34.93
76122;BME280;70471;53.200;6.080;2024-03-29T13:21:16;99356.97;;;20.25;35.19
76122;BME280;70471;53.200;6.080;2024-03-29T13:26:07;99362.50;;;20.25;34.82
76122;BME280;70471;53.200;6.080;2024-03-29T13:31:00;99363.97;;;20.22;35.32
76122;BME280;70471;53.200;6.080;2024-03-29T13:35:52;99374.69;;;20.24;34.79
76122;BME280;70471;53.200;6.080;2024-03-29T13:40:45;99365.94;;;20.22;35.45
76122;BME280;70471;53.200;6.080;2024-03-29T13:45:37;99365.59;;;20.23;35.21
76122;BME280;70471;53.200;6.080;2024-03-29T13:50:30;99358.56;;;20.26;35.24
76122;BME280;70471;53.200;6.080;2024-03-29T13:55:21;99363.31;;;20.25;34.90
76122;BME280;70471;53.200;6.080;2024-03-29T14:00:16;99351.91;;;20.27;34.91
76122;BME280;70471;53.200;6.080;2024-03-29T14:05:09;99357.09;;;20.28;34.90
76122;BME280;70471;53.200;6.080;2024-03-29T14:10:05;99372.22;;;20.31;35.00
76122;BME280;70471;53.200;6.080;2024-03-29T14:14:57;99374.34;;;20.34;34.83
76122;BME280;70471;53.200;6.080;2024-03-29T14:19:48;99384.22;;;20.35;35.50
76122;BME280;70471;53.200;6.080;2024-03-29T14:24:40;99387.50;;;20.37;35.39
76122;BME280;70471;53.200;6.080;2024-03-29T14:29:33;99387.72;;;20.44;34.90
76122;BME280;70471;53.200;6.080;2024-03-29T14:34:25;99396.38;;;20.43;35.33
76122;BME280;70471;53.200;6.080;2024-03-29T14:39:16;99399.94;;;20.43;35.32
76122;BME280;70471;53.200;6.080;2024-03-29T14:44:09;99400.63;;;20.40;35.01
76122;BME280;70471;53.200;6.080;2024-03-29T14:49:02;99388.75;;;20.40;34.91
76122;BME280;70471;53.200;6.080;2024-03-29T14:53:57;99397.06;;;20.40;35.43
76122;BME280;70471;53.200;6.080;2024-03-29T14:58:48;99404.56;;;20.39;35.26
76122;BME280;70471;53.200;6.080;2024-03-29T15:03:40;99423.56;;;20.41;34.72
76122;BME280;70471;53.200;6.080;2024-03-29T15:08:33;99411.69;;;20.40;34.87
76122;BME280;70471;53.200;6.080;2024-03-29T15:13:25;99405.69;;;20.38;35.38
76122;BME280;70471;53.200;6.080;2024-03-29T15:18:16;99399.22;;;20.34;34.72
76122;BME280;70471;53.200;6.080;2024-03-29T15:23:08;99416.88;;;20.42;34.98
76122;BME280;70471;53.200;6.080;2024-03-29T15:28:01;99425.06;;;20.38;34.71
76122;BME280;70471;53.200;6.080;2024-03-29T15:33:10;99439.34;;;20.40;35.30
76122;BME280;70471;53.200;6.080;2024-03-29T15:38:03;99438.88;;;20.38;35.23
76122;BME280;70471;53.200;6.080;2024-03-29T15:43:03;99431.25;;;20.35;35.28
76122;BME280;70471;53.200;6.080;2024-03-29T15:47:54;99439.69;;;20.38;35.36
76122;BME280;70471;53.200;6.080;2024-03-29T15:52:47;99458.59;;;20.36;35.03
76122;BME280;70471;53.200;6.080;2024-03-29T15:57:38;99459.66;;;20.44;34.78
76122;BME280;70471;53.200;6.080;2024-03-29T16:02:38;99474.25;;;20.53;34.65
76122;BME280;70471;53.200;6.080;2024-03-29T16:07:37;99469.84;;;20.52;35.32
76122;BME280;70471;53.200;6.080;2024-03-29T16:12:28;99472.69;;;20.65;34.53
76122;BME280;70471;53.200;6.080;2024-03-29T16:17:20;99477.53;;;20.68;34.63
76122;BME280;70471;53.200;6.080;2024-03-29T16:22:13;99471.06;;;20.64;34.76
76122;BME280;70471;53.200;6.080;2024-03-29T16:27:05;99471.66;;;20.69;34.38
76122;BME280;70471;53.200;6.080;2024-03-29T16:31:57;99478.00;;;20.70;34.42
76122;BME280;70471;53.200;6.080;2024-03-29T16:36:48;99494.59;;;20.70;34.67
76122;BME280;70471;53.200;6.080;2024-03-29T16:41:41;99503.06;;;20.73;34.76
76122;BME280;70471;53.200;6.080;2024-03-29T16:46:33;99497.19;;;20.75;34.79
76122;BME280;70471;53.200;6.080;2024-03-29T16:51:24;99501.78;;;20.71;34.84
76122;BME280;70471;53.200;6.080;2024-03-29T16:56:16;99500.97;;;20.70;34.98
76122;BME280;70471;53.200;6.080;2024-03-29T17:01:08;99508.44;;;20.70;34.40
76122;BME280;70471;53.200;6.080;2024-03-29T17:06:00;99502.44;;;20.68;34.85
76122;BME280;70471;53.200;6.080;2024-03-29T17:10:51;99510.53;;;20.73;34.83
76122;BME280;70471;53.200;6.080;2024-03-29T17:15:43;99521.59;;;20.73;35.04
76122;BME280;70471;53.200;6.080;2024-03-29T17:20:36;99513.97;;;20.70;34.77
76122;BME280;70471;53.200;6.080;2024-03-29T17:25:27;99505.56;;;20.66;35.02
76122;BME280;70471;53.200;6.080;2024-03-29T17:30:19;99507.69;;;20.61;35.08
76122;BME280;70471;53.200;6.080;2024-03-29T17:35:10;99504.47;;;20.59;34.70
76122;BME280;70471;53.200;6.080;2024-03-29T17:40:05;99514.28;;;20.56;35.19
76122;BME280;70471;53.200;6.080;2024-03-29T17:44:57;99512.19;;;20.53;35.09
76122;BME280;70471;53.200;6.080;2024-03-29T17:49:49;99521.28;;;20.53;35.23
76122;BME280;70471;53.200;6.080;2024-03-29T17:54:40;99513.66;;;20.50;35.17
76122;BME280;70471;53.200;6.080;2024-03-29T17:59:33;99519.19;;;20.50;35.13
76122;BME280;70471;53.200;6.080;2024-03-29T18:04:25;99515.75;;;20.53;35.81
76122;BME280;70471;53.200;6.080;2024-03-29T18:09:16;99527.28;;;20.55;36.06
76122;BME280;70471;53.200;6.080;2024-03-29T18:14:07;99538.34;;;20.55;35.93
76122;BME280;70471;53.200;6.080;2024-03-29T18:19:00;99532.34;;;20.53;35.72
76122;BME280;70471;53.200;6.080;2024-03-29T18:23:52;99534.44;;;20.57;35.81
76122;BME280;70471;53.200;6.080;2024-03-29T18:28:43;99541.25;;;20.59;36.12
76122;BME280;70471;53.200;6.080;2024-03-29T18:33:35;99549.72;;;20.63;36.02
76122;BME280;70471;53.200;6.080;2024-03-29T18:38:28;99542.53;;;20.62;35.78
76122;BME280;70471;53.200;6.080;2024-03-29T18:43:24;99538.47;;;20.59;35.91
76122;BME280;70471;53.200;6.080;2024-03-29T18:48:15;99552.66;;;20.58;35.89
76122;BME280;70471;53.200;6.080;2024-03-29T18:53:07;99548.75;;;20.59;35.39
76122;BME280;70471;53.200;6.080;2024-03-29T18:57:59;99557.25;;;20.53;35.47
76122;BME280;70471;53.200;6.080;2024-03-29T19:02:51;99552.06;;;20.52;35.88
76122;BME280;70471;53.200;6.080;2024-03-29T19:07:42;99551.25;;;20.51;35.89
76122;BME280;70471;53.200;6.080;2024-03-29T19:12:34;99550.75;;;20.49;35.77
76122;BME280;70471;53.200;6.080;2024-03-29T19:17:26;99551.44;;;20.46;35.58
76122;BME280;70471;53.200;6.080;2024-03-29T19:22:18;99557.63;;;20.43;36.05
76122;BME280;70471;53.200;6.080;2024-03-29T19:27:09;99568.22;;;20.41;35.99
76122;BME280;70471;53.200;6.080;2024-03-29T19:32:01;99567.78;;;20.39;35.74
76122;BME280;70471;53.200;6.080;2024-03-29T19:36:54;99560.59;;;20.38;36.22
76122;BME280;70471;53.200;6.080;2024-03-29T19:41:49;99573.97;;;20.36;35.67
76122;BME280;70471;53.200;6.080;2024-03-29T19:46:40;99577.88;;;20.35;36.18
76122;BME280;70471;53.200;6.080;2024-03-29T19:51:32;99583.72;;;20.33;36.15
76122;BME280;70471;53.200;6.080;2024-03-29T19:56:24;99580.81;;;20.30;36.82
76122;BME280;70471;53.200;6.080;2024-03-29T20:01:16;99601.28;;;20.29;37.85
76122;BME280;70471;53.200;6.080;2024-03-29T20:06:07;99606.16;;;20.32;38.12
76122;BME280;70471;53.200;6.080;2024-03-29T20:10:59;99600.84;;;20.35;37.87
76122;BME280;70471;53.200;6.080;2024-03-29T20:15:52;99606.16;;;20.41;38.08
76122;BME280;70471;53.200;6.080;2024-03-29T20:20:47;99606.75;;;20.46;37.50
76122;BME280;70471;53.200;6.080;2024-03-29T20:25:39;99625.28;;;20.54;37.78
76122;BME280;70471;53.200;6.080;2024-03-29T20:30:31;99620.38;;;20.60;37.83
76122;BME280;70471;53.200;6.080;2024-03-29T20:35:25;99626.38;;;20.62;37.09
76122;BME280;70471;53.200;6.080;2024-03-29T20:40:16;99631.41;;;20.69;37.82
76122;BME280;70471;53.200;6.080;2024-03-29T20:45:08;99637.41;;;20.71;37.58
76122;BME280;70471;53.200;6.080;2024-03-29T20:50:00;99650.09;;;20.72;37.18
76122;BME280;70471;53.200;6.080;2024-03-29T20:54:54;99646.50;;;20.71;37.38
76122;BME280;70471;53.200;6.080;2024-03-29T20:59:45;99651.25;;;20.71;37.03
76122;BME280;70471;53.200;6.080;2024-03-29T21:04:36;99654.34;;;20.69;36.78
76122;BME280;70471;53.200;6.080;2024-03-29T21:09:45;99655.81;;;20.67;36.99
76122;BME280;70471;53.200;6.080;2024-03-29T21:14:38;99662.00;;;20.64;37.16
76122;BME280;70471;53.200;6.080;2024-03-29T21:19:29;99662.69;;;20.61;36.99
76122;BME280;70471;53.200;6.080;2024-03-29T21:24:21;99666.59;;;20.60;37.10
76122;BME280;70471;53.200;6.080;2024-03-29T21:29:12;99670.50;;;20.59;36.72
76122;BME280;70471;53.200;6.080;2024-03-29T21:34:05;99658.97;;;20.57;36.48
76122;BME280;70471;53.200;6.080;2024-03-29T21:38:57;99665.63;;;20.55;37.15
76122;BME280;70471;53.200;6.080;2024-03-29T21:43:48;99671.50;;;20.54;37.04
76122;BME280;70471;53.200;6.080;2024-03-29T21:48:39;99674.59;;;20.52;36.66
76122;BME280;70471;53.200;6.080;2024-03-29T21:53:32;99670.56;;;20.50;36.68
76122;BME280;70471;53.200;6.080;2024-03-29T21:58:24;99675.78;;;20.51;36.73
76122;BME280;70471;53.200;6.080;2024-03-29T22:03:15;99679.66;;;20.50;36.64
76122;BME280;70471;53.200;6.080;2024-03-29T22:08:06;99689.94;;;20.50;36.80
76122;BME280;70471;53.200;6.080;2024-03-29T22:12:59;99701.00;;;20.50;36.19
76122;BME280;70471;53.200;6.080;2024-03-29T22:17:51;99704.91;;;20.49;36.68
76122;BME280;70471;53.200;6.080;2024-03-29T22:22:42;99713.53;;;20.47;36.30
76122;BME280;70471;53.200;6.080;2024-03-29T22:27:34;99714.69;;;20.46;36.30
76122;BME280;70471;53.200;6.080;2024-03-29T22:32:26;99720.53;;;20.45;36.55
76122;BME280;70471;53.200;6.080;2024-03-29T22:37:18;99718.09;;;20.43;36.41
76122;BME280;70471;53.200;6.080;2024-03-29T22:42:09;99730.31;;;20.42;35.70
76122;BME280;70471;53.200;6.080;2024-03-29T22:47:01;99728.22;;;20.39;36.30
76122;BME280;70471;53.200;6.080;2024-03-29T22:51:54;99734.88;;;20.38;36.31
76122;BME280;70471;53.200;6.080;2024-03-29T22:56:45;99739.47;;;20.34;35.79
76122;BME280;70471;53.200;6.080;2024-03-29T23:01:37;99762.41;;;20.34;35.73
76122;BME280;70471;53.200;6.080;2024-03-29T23:06:28;99758.31;;;20.32;36.05
76122;BME280;70471;53.200;6.080;2024-03-29T23:11:21;99762.22;;;20.31;36.03
76122;BME280;70471;53.200;6.080;2024-03-29T23:16:12;99758.16;;;20.28;36.30
76122;BME280;70471;53.200;6.080;2024-03-29T23:21:04;99763.22;;;20.26;35.80
76122;BME280;70471;53.200;6.080;2024-03-29T23:25:56;99761.91;;;20.24;36.20
76122;BME280;70471;53.200;6.080;2024-03-29T23:30:48;99772.50;;;20.22;36.25
76122;BME280;70471;53.200;6.080;2024-03-29T23:35:40;99769.25;;;20.19;36.23
76122;BME280;70471;53.200;6.080;2024-03-29T23:40:31;99763.22;;;20.17;36.20
76122;BME280;70471;53.200;6.080;2024-03-29T23:45:23;99754.44;;;20.15;35.67
76122;BME280;70471;53.200;6.080;2024-03-29T23:50:16;99757.22;;;20.15;35.89
76122;BME280;70471;53.200;6.080;2024-03-29T23:55:07;99759.50;;;20.13;36.11
